Time;durP1;ratioP1;P1;durP2;ratioP2;P2;SDS_P1;SDS_P2;PMS_P1;PMS_P2;Temp;Humidity;BMP_temperature;BMP_pressure;BME280_temperature;BME280_humidity;BME280_pressure;Samples;Min_cycle;Max_cycle;Signal;HPM_P1;HPM_P2
2021/01/28 00:00:33;;;;;;;6.72;5.50;;;;;;;;;;5092627;28;20043;-47
2021/01/28 00:03:00;;;;;;;6.20;5.60;;;;;;;;;;5092257;28;20039;-46
2021/01/28 00:05:28;;;;;;;6.43;5.82;;;;;;;;;;5092465;28;20044;-55
2021/01/28 00:07:56;;;;;;;5.85;5.25;;;;;;;;;;5092348;28;20377;-57
2021/01/28 00:10:23;;;;;;;7.25;6.35;;;;;;;;;;5092512;28;20044;-47
2021/01/28 00:12:51;;;;;;;6.50;5.80;;;;;;;;;;5091889;28;20044;-50
2021/01/28 00:15:21;;;;;;;6.82;5.75;;;;;;;;;;5092374;28;20048;-53
2021/01/28 00:17:48;;;;;;;6.75;6.03;;;;;;;;;;5092305;28;20075;-58
2021/01/28 00:20:18;;;;;;;6.70;6.00;;;;;;;;;;5092322;28;20040;-46
2021/01/28 00:22:45;;;;;;;7.53;6.15;;;;;;;;;;5091949;28;20036;-45
2021/01/28 00:25:16;;;;;;;7.20;6.30;;;;;;;;;;5092252;28;20048;-55
2021/01/28 00:27:43;;;;;;;7.63;6.20;;;;;;;;;;5092015;28;20044;-52
2021/01/28 00:30:12;;;;;;;6.75;6.05;;;;;;;;;;5092016;28;20478;-46
2021/01/28 00:32:39;;;;;;;6.25;5.65;;;;;;;;;;5091797;28;20070;-57
2021/01/28 00:35:07;;;;;;;6.95;5.95;;;;;;;;;;5091896;28;20461;-46
2021/01/28 00:37:34;;;;;;;7.85;6.22;;;;;;;;;;5091804;28;20048;-46
2021/01/28 00:40:01;;;;;;;6.32;5.70;;;;;;;;;;5091653;28;20049;-55
2021/01/28 00:42:29;;;;;;;7.32;6.30;;;;;;;;;;5090584;28;20066;-46
2021/01/28 00:44:57;;;;;;;5.88;5.28;;;;;;;;;;5091728;28;20036;-47
2021/01/28 00:47:24;;;;;;;6.70;6.00;;;;;;;;;;5090545;28;20051;-47
2021/01/28 00:49:51;;;;;;;6.68;5.70;;;;;;;;;;5091814;28;20048;-46
2021/01/28 00:52:18;;;;;;;6.75;6.05;;;;;;;;;;5077429;28;20049;-47
2021/01/28 00:54:45;;;;;;;7.70;6.45;;;;;;;;;;5078133;28;20427;-47
2021/01/28 00:57:17;;;;;;;7.37;6.13;;;;;;;;;;5073263;28;20045;-46
2021/01/28 00:59:44;;;;;;;6.38;5.72;;;;;;;;;;5056885;28;20049;-46
2021/01/28 01:02:11;;;;;;;6.90;6.03;;;;;;;;;;5057386;28;20067;-46
2021/01/28 01:04:38;;;;;;;6.95;6.25;;;;;;;;;;5077943;28;20350;-45
2021/01/28 01:07:05;;;;;;;7.82;6.13;;;;;;;;;;5077749;28;20071;-47
2021/01/28 01:09:32;;;;;;;6.55;5.95;;;;;;;;;;5077851;28;20048;-47
2021/01/28 01:11:58;;;;;;;7.32;5.68;;;;;;;;;;5076512;28;20040;-46
2021/01/28 01:14:25;;;;;;;7.55;6.75;;;;;;;;;;5077597;28;20063;-46
2021/01/28 01:16:53;;;;;;;6.47;5.75;;;;;;;;;;5076550;28;20051;-45
2021/01/28 01:19:26;;;;;;;6.82;6.13;;;;;;;;;;5076589;28;20036;-46
2021/01/28 01:22:04;;;;;;;6.70;5.82;;;;;;;;;;5076614;28;20048;-50
2021/01/28 01:24:31;;;;;;;8.13;6.15;;;;;;;;;;5077326;28;20044;-52
2021/01/28 01:27:00;;;;;;;7.05;6.35;;;;;;;;;;5076249;28;20040;-55
2021/01/28 01:29:27;;;;;;;6.97;6.28;;;;;;;;;;5076460;28;20040;-46
2021/01/28 01:32:12;;;;;;;7.38;6.00;;;;;;;;;;5077380;28;20040;-46
2021/01/28 01:35:14;;;;;;;6.53;5.85;;;;;;;;;;5077184;28;20207;-46
2021/01/28 01:37:44;;;;;;;6.78;6.07;;;;;;;;;;5076101;28;20355;-49
2021/01/28 01:40:14;;;;;;;6.43;5.72;;;;;;;;;;5076293;28;20052;-57
2021/01/28 01:42:47;;;;;;;6.35;5.75;;;;;;;;;;5075633;28;20037;-55
2021/01/28 01:45:14;;;;;;;6.22;5.55;;;;;;;;;;5076139;28;20040;-46
2021/01/28 01:47:53;;;;;;;6.00;5.40;;;;;;;;;;5075926;28;20071;-46
2021/01/28 01:50:24;;;;;;;;;;;;;;;;;;5073143;28;20048;-46
2021/01/28 01:52:51;;;;;;;5.55;5.05;;;;;;;;;;5061300;28;19908;-47
2021/01/28 01:55:18;;;;;;;6.45;5.85;;;;;;;;;;5076944;28;20048;-46
2021/01/28 01:58:00;;;;;;;6.93;6.22;;;;;;;;;;5075815;28;20051;-50
2021/01/28 02:00:28;;;;;;;6.00;5.40;;;;;;;;;;5076803;28;20045;-47
2021/01/28 02:03:15;;;;;;;8.02;6.13;;;;;;;;;;5069696;28;20466;-58
2021/01/28 02:06:09;;;;;;;7.68;6.10;;;;;;;;;;5045506;28;20040;-54
2021/01/28 02:08:59;;;;;;;7.20;6.50;;;;;;;;;;5056467;28;20049;-48
2021/01/28 02:11:47;;;;;;;7.22;5.68;;;;;;;;;;5066796;28;20108;-48
2021/01/28 02:14:34;;;;;;;6.05;5.45;;;;;;;;;;5076028;28;20055;-47
2021/01/28 02:17:13;;;;;;;6.25;5.65;;;;;;;;;;5071772;28;20368;-54
2021/01/28 02:20:07;;;;;;;6.45;5.60;;;;;;;;;;5056394;28;20047;-47
2021/01/28 02:22:48;;;;;;;6.05;5.45;;;;;;;;;;5057614;28;20462;-54
2021/01/28 02:25:21;;;;;;;6.20;5.43;;;;;;;;;;5075238;28;20037;-47
2021/01/28 02:27:49;;;;;;;6.05;5.20;;;;;;;;;;5075296;28;20040;-54
2021/01/28 02:30:26;;;;;;;5.35;4.85;;;;;;;;;;5075229;28;20043;-46
2021/01/28 02:32:53;;;;;;;5.90;5.30;;;;;;;;;;5075878;28;20458;-47
2021/01/28 02:35:55;;;;;;;5.80;4.90;;;;;;;;;;5057629;28;20045;-47
2021/01/28 02:38:24;;;;;;;5.18;4.63;;;;;;;;;;5055011;28;20060;-45
2021/01/28 02:40:56;;;;;;;5.45;4.85;;;;;;;;;;5058517;28;20469;-46
2021/01/28 02:43:33;;;;;;;4.95;4.45;;;;;;;;;;5074716;28;20371;-46
2021/01/28 02:46:21;;;;;;;5.60;5.00;;;;;;;;;;5074551;28;20044;-59
2021/01/28 02:49:27;;;;;;;4.60;4.03;;;;;;;;;;5060410;28;20056;-52
2021/01/28 02:51:58;;;;;;;5.38;4.72;;;;;;;;;;5067742;28;20052;-48
2021/01/28 02:54:31;;;;;;;;;;;;;;;;;;5071541;28;20040;-47
2021/01/28 02:56:58;;;;;;;6.43;5.05;;;;;;;;;;5074573;28;19915;-46
2021/01/28 02:59:26;;;;;;;5.75;4.85;;;;;;;;;;5074529;28;20049;-47
2021/01/28 03:01:56;;;;;;;5.57;4.63;;;;;;;;;;5074720;28;20043;-46
2021/01/28 03:04:23;;;;;;;6.53;4.70;;;;;;;;;;5074425;28;20043;-47
2021/01/28 03:07:12;;;;;;;5.15;4.45;;;;;;;;;;5074475;28;20043;-46
2021/01/28 03:09:39;;;;;;;5.70;5.10;;;;;;;;;;5075535;28;20048;-56
2021/01/28 03:12:10;;;;;;;5.82;4.90;;;;;;;;;;5075342;28;20370;-47
2021/01/28 03:14:48;;;;;;;6.95;5.25;;;;;;;;;;5073916;28;20048;-57
2021/01/28 03:17:15;;;;;;;6.68;5.57;;;;;;;;;;5074062;28;20059;-46
2021/01/28 03:19:46;;;;;;;6.63;5.85;;;;;;;;;;5074471;28;20039;-58
2021/01/28 03:22:16;;;;;;;6.63;5.90;;;;;;;;;;5074521;28;20044;-47
2021/01/28 03:24:50;;;;;;;6.85;5.50;;;;;;;;;;5073777;28;20044;-53
2021/01/28 03:27:19;;;;;;;5.85;5.25;;;;;;;;;;5074083;28;20493;-46
2021/01/28 03:29:52;;;;;;;5.90;5.30;;;;;;;;;;5074348;28;20048;-47
2021/01/28 03:32:19;;;;;;;5.60;5.03;;;;;;;;;;5075413;28;20040;-47
2021/01/28 03:34:48;;;;;;;5.80;5.20;;;;;;;;;;5074063;28;20040;-55
2021/01/28 03:37:15;;;;;;;5.78;5.18;;;;;;;;;;5074024;28;20047;-58
2021/01/28 03:39:58;;;;;;;6.13;5.40;;;;;;;;;;5075233;28;20048;-47
2021/01/28 03:42:25;;;;;;;5.95;4.95;;;;;;;;;;5073937;28;20037;-52
2021/01/28 03:44:55;;;;;;;5.93;5.32;;;;;;;;;;5075012;28;20052;-46
2021/01/28 03:47:25;;;;;;;6.07;5.18;;;;;;;;;;5073785;28;20048;-46
2021/01/28 03:50:22;;;;;;;6.07;5.47;;;;;;;;;;5074257;28;20048;-46
2021/01/28 03:53:15;;;;;;;5.60;5.10;;;;;;;;;;5052969;28;20347;-46
2021/01/28 03:55:55;;;;;;;6.18;5.38;;;;;;;;;;5074927;28;20048;-53
2021/01/28 03:58:22;;;;;;;6.00;5.22;;;;;;;;;;5075142;28;20075;-47
2021/01/28 04:01:09;;;;;;;5.82;5.10;;;;;;;;;;5074869;28;20048;-46
2021/01/28 04:03:37;;;;;;;6.38;5.40;;;;;;;;;;5068194;28;20040;-57
2021/01/28 04:06:36;;;;;;;6.85;5.78;;;;;;;;;;5074244;28;20055;-46
2021/01/28 04:09:29;;;;;;;5.97;5.38;;;;;;;;;;5071529;28;20387;-48
2021/01/28 04:12:04;;;;;;;6.47;5.75;;;;;;;;;;5067036;28;20478;-47
2021/01/28 04:14:50;;;;;;;7.30;6.45;;;;;;;;;;5074707;28;20044;-56
2021/01/28 04:17:22;;;;;;;7.63;6.82;;;;;;;;;;5073796;28;20041;-52
2021/01/28 04:19:54;;;;;;;7.32;6.57;;;;;;;;;;5073708;28;20371;-48
2021/01/28 04:22:22;;;;;;;7.25;6.50;;;;;;;;;;5073862;28;20041;-45
2021/01/28 04:25:05;;;;;;;7.07;6.28;;;;;;;;;;5073583;28;20047;-55
2021/01/28 04:27:33;;;;;;;7.97;6.05;;;;;;;;;;5077199;28;20455;-56
2021/01/28 04:30:14;;;;;;;6.53;5.82;;;;;;;;;;5077525;28;20051;-56
2021/01/28 04:33:00;;;;;;;6.60;6.00;;;;;;;;;;5077170;28;20071;-55
2021/01/28 04:35:56;;;;;;;7.18;6.45;;;;;;;;;;5077639;28;20074;-47
2021/01/28 04:38:23;;;;;;;8.75;7.47;;;;;;;;;;5077355;28;20450;-55
2021/01/28 04:41:17;;;;;;;8.45;6.90;;;;;;;;;;5076952;28;20123;-49
2021/01/28 04:43:47;;;;;;;8.13;6.65;;;;;;;;;;5078136;28;20049;-56
2021/01/28 04:46:36;;;;;;;7.22;6.38;;;;;;;;;;5078246;28;20052;-56
2021/01/28 04:49:25;;;;;;;7.65;6.82;;;;;;;;;;5078082;28;20037;-57
2021/01/28 04:52:22;;;;;;;9.15;7.18;;;;;;;;;;5077545;28;20043;-52
2021/01/28 04:55:11;;;;;;;8.70;6.68;;;;;;;;;;5079186;28;20041;-47
2021/01/28 04:57:43;;;;;;;6.72;6.03;;;;;;;;;;5077036;28;20052;-53
2021/01/28 05:00:12;;;;;;;7.38;6.60;;;;;;;;;;5076893;28;20043;-47
2021/01/28 05:02:50;;;;;;;10.50;7.80;;;;;;;;;;5077184;28;20059;-46
2021/01/28 05:05:43;;;;;;;12.52;8.70;;;;;;;;;;5056686;28;20049;-47
2021/01/28 05:08:26;;;;;;;8.40;7.15;;;;;;;;;;5056677;28;20037;-47
2021/01/28 05:11:21;;;;;;;7.85;6.80;;;;;;;;;;5061497;28;20067;-52
2021/01/28 05:14:24;;;;;;;7.50;6.72;;;;;;;;;;5066156;28;20040;-46
2021/01/28 05:17:30;;;;;;;7.88;6.93;;;;;;;;;;5076830;28;20040;-47
2021/01/28 05:20:20;;;;;;;9.23;7.85;;;;;;;;;;5077458;28;20052;-47
2021/01/28 05:23:11;;;;;;;9.13;8.15;;;;;;;;;;5077295;28;20040;-46
2021/01/28 05:25:43;;;;;;;7.72;6.93;;;;;;;;;;5076573;28;20042;-46
2021/01/28 05:28:52;;;;;;;7.45;6.65;;;;;;;;;;5075324;28;20075;-50
2021/01/28 05:31:31;;;;;;;6.68;5.97;;;;;;;;;;5072034;28;20051;-53
2021/01/28 05:34:21;;;;;;;7.30;5.50;;;;;;;;;;5077039;28;20474;-50
2021/01/28 05:37:06;;;;;;;7.85;6.93;;;;;;;;;;5066496;28;20041;-53
2021/01/28 05:39:44;;;;;;;7.65;6.63;;;;;;;;;;5056210;28;20061;-53
2021/01/28 05:42:28;;;;;;;8.23;6.75;;;;;;;;;;5057949;28;20040;-48
2021/01/28 05:44:57;;;;;;;7.03;6.32;;;;;;;;;;5070590;28;20040;-48
2021/01/28 05:47:33;;;;;;;6.72;5.75;;;;;;;;;;5057228;28;20052;-50
2021/01/28 05:50:21;;;;;;;7.00;5.65;;;;;;;;;;5056169;28;20056;-48
2021/01/28 05:52:51;;;;;;;8.73;6.40;;;;;;;;;;5057109;28;20045;-49
2021/01/28 05:55:35;;;;;;;10.68;6.88;;;;;;;;;;5075101;28;20435;-50
2021/01/28 05:58:12;;;;;;;8.88;6.50;;;;;;;;;;5075908;28;20059;-53
2021/01/28 06:00:52;;;;;;;7.07;6.03;;;;;;;;;;5075878;28;20079;-47
2021/01/28 06:03:25;;;;;;;5.57;4.88;;;;;;;;;;5058946;28;20041;-48
2021/01/28 06:06:14;;;;;;;7.22;5.38;;;;;;;;;;5076706;28;20044;-49
2021/01/28 06:09:05;;;;;;;6.53;5.30;;;;;;;;;;5083965;28;20047;-55
2021/01/28 06:11:54;;;;;;;6.40;5.72;;;;;;;;;;5098943;28;20043;-48
2021/01/28 06:14:20;;;;;;;5.75;4.85;;;;;;;;;;5090026;28;20413;-57
2021/01/28 06:17:01;;;;;;;5.60;4.57;;;;;;;;;;5078638;28;20354;-48
2021/01/28 06:19:55;;;;;;;5.50;4.53;;;;;;;;;;5078677;28;20043;-49
2021/01/28 06:22:33;;;;;;;7.25;5.47;;;;;;;;;;5078723;28;20473;-47
2021/01/28 06:25:29;;;;;;;6.15;5.10;;;;;;;;;;5079861;28;20048;-47
2021/01/28 06:28:07;;;;;;;6.78;5.38;;;;;;;;;;5098797;28;20350;-47
2021/01/28 06:30:58;;;;;;;5.60;4.88;;;;;;;;;;5098797;28;20050;-47
2021/01/28 06:34:08;;;;;;;6.53;4.60;;;;;;;;;;5055009;28;20040;-50
2021/01/28 06:37:02;;;;;;;7.32;5.72;;;;;;;;;;5096537;28;20354;-49
2021/01/28 06:39:48;;;;;;;6.22;4.95;;;;;;;;;;5098731;28;20039;-49
2021/01/28 06:42:22;;;;;;;7.57;5.82;;;;;;;;;;5116256;28;20036;-49
2021/01/28 06:45:13;;;;;;;6.75;5.57;;;;;;;;;;5107867;28;20046;-48
2021/01/28 06:47:53;;;;;;;8.63;6.20;;;;;;;;;;5077655;28;20037;-49
2021/01/28 06:50:29;;;;;;;7.32;6.32;;;;;;;;;;5063369;28;20040;-47
2021/01/28 06:53:11;;;;;;;9.93;6.78;;;;;;;;;;5091712;28;20047;-47
2021/01/28 06:56:29;;;;;;;6.25;5.53;;;;;;;;;;5050158;28;20466;-47
2021/01/28 06:59:25;;;;;;;8.48;6.75;;;;;;;;;;5036914;28;20044;-47
2021/01/28 07:02:17;;;;;;;7.10;5.68;;;;;;;;;;5054018;28;20035;-47
2021/01/28 07:05:14;;;;;;;7.95;5.57;;;;;;;;;;5069493;28;20051;-47
2021/01/28 07:07:45;;;;;;;6.63;5.50;;;;;;;;;;5098307;28;20040;-48
2021/01/28 07:10:37;;;;;;;8.15;4.90;;;;;;;;;;5115215;28;20052;-47
2021/01/28 07:13:32;;;;;;;7.15;5.35;;;;;;;;;;5071927;28;20044;-49
2021/01/28 07:16:22;;;;;;;7.55;5.93;;;;;;;;;;5098548;28;20046;-57
2021/01/28 07:18:54;;;;;;;7.90;5.47;;;;;;;;;;5115918;28;20039;-57
2021/01/28 07:21:27;;;;;;;5.00;4.43;;;;;;;;;;5115948;28;20438;-50
2021/01/28 07:24:02;;;;;;;4.72;4.10;;;;;;;;;;5097323;28;20058;-48
2021/01/28 07:26:43;;;;;;;5.15;3.88;;;;;;;;;;5115597;28;20777;-50
2021/01/28 07:29:28;;;;;;;4.60;3.95;;;;;;;;;;5075362;28;20078;-50
2021/01/28 07:31:55;;;;;;;4.90;4.40;;;;;;;;;;5075228;28;20060;-49
2021/01/28 07:34:31;;;;;;;4.68;4.07;;;;;;;;;;5070612;28;20043;-50
2021/01/28 07:37:18;;;;;;;4.00;3.10;;;;;;;;;;5097784;28;20035;-49
2021/01/28 07:40:35;;;;;;;3.70;3.40;;;;;;;;;;5041462;28;20071;-48
2021/01/28 07:43:26;;;;;;;4.90;3.88;;;;;;;;;;5067896;28;20044;-53
2021/01/28 07:46:15;;;;;;;4.20;3.65;;;;;;;;;;5101820;28;20050;-49
2021/01/28 07:49:10;;;;;;;5.70;4.25;;;;;;;;;;5097708;28;20048;-59
2021/01/28 07:52:03;;;;;;;4.60;4.15;;;;;;;;;;5115560;28;20039;-53
2021/01/28 07:54:30;;;;;;;5.07;4.40;;;;;;;;;;5077256;28;20037;-51
2021/01/28 07:57:05;;;;;;;5.10;4.60;;;;;;;;;;5115401;28;20043;-48
2021/01/28 07:59:35;;;;;;;4.50;4.00;;;;;;;;;;5115621;28;20477;-52
2021/01/28 08:02:12;;;;;;;5.72;4.97;;;;;;;;;;5118586;28;20051;-50
2021/01/28 08:04:43;;;;;;;5.50;4.55;;;;;;;;;;5119458;28;20047;-57
2021/01/28 08:07:12;;;;;;;4.95;4.40;;;;;;;;;;5119460;28;20035;-49
2021/01/28 08:09:52;;;;;;;5.15;4.60;;;;;;;;;;5082872;28;20048;-50
2021/01/28 08:12:28;;;;;;;6.45;4.43;;;;;;;;;;5104797;28;20046;-50
2021/01/28 08:14:55;;;;;;;7.10;5.50;;;;;;;;;;5085030;28;20036;-51
2021/01/28 08:17:25;;;;;;;4.05;3.63;;;;;;;;;;5109451;28;20032;-49
2021/01/28 08:19:52;;;;;;;5.13;4.47;;;;;;;;;;5078676;28;20032;-58
2021/01/28 08:22:19;;;;;;;5.28;4.50;;;;;;;;;;5078645;28;20052;-58
2021/01/28 08:24:53;;;;;;;4.88;4.20;;;;;;;;;;5072241;28;20048;-57
2021/01/28 08:27:30;;;;;;;6.20;5.15;;;;;;;;;;5119492;28;20047;-59
2021/01/28 08:30:06;;;;;;;5.70;5.10;;;;;;;;;;5119315;28;20331;-50
2021/01/28 08:32:33;;;;;;;4.75;4.35;;;;;;;;;;5119300;28;20469;-51
2021/01/28 08:35:01;;;;;;;4.68;4.22;;;;;;;;;;5118702;28;20036;-54
2021/01/28 08:37:29;;;;;;;5.00;4.50;;;;;;;;;;5119146;28;20374;-50
2021/01/28 08:39:56;;;;;;;4.93;4.30;;;;;;;;;;5119029;28;20059;-49
2021/01/28 08:42:24;;;;;;;4.75;4.32;;;;;;;;;;5118961;28;20050;-52
2021/01/28 08:45:05;;;;;;;5.72;4.50;;;;;;;;;;5116422;28;20039;-50
2021/01/28 08:47:33;;;;;;;3.25;2.95;;;;;;;;;;5089110;28;20032;-52
2021/01/28 08:50:01;;;;;;;3.55;3.20;;;;;;;;;;5078019;28;20041;-50
2021/01/28 08:52:28;;;;;;;3.25;2.95;;;;;;;;;;5078067;28;20047;-49
2021/01/28 08:54:55;;;;;;;3.42;2.90;;;;;;;;;;5079851;28;20040;-50
2021/01/28 08:57:24;;;;;;;3.47;2.80;;;;;;;;;;5083756;28;20451;-48
2021/01/28 08:59:52;;;;;;;4.32;2.80;;;;;;;;;;5078009;28;20037;-51
2021/01/28 09:02:30;;;;;;;4.22;3.83;;;;;;;;;;5077881;28;20059;-49
2021/01/28 09:05:18;;;;;;;4.57;3.75;;;;;;;;;;5079519;28;20043;-48
2021/01/28 09:07:49;;;;;;;3.95;3.55;;;;;;;;;;5098121;28;20048;-49
2021/01/28 09:10:31;;;;;;;6.30;3.75;;;;;;;;;;5098004;28;20482;-51
2021/01/28 09:12:58;;;;;;;;;;;;;;;;;;5077527;28;20028;-50
2021/01/28 09:15:30;;;;;;;4.45;3.50;;;;;;;;;;5083014;28;19908;-51
2021/01/28 09:18:04;;;;;;;4.45;3.35;;;;;;;;;;5097938;28;20348;-48
2021/01/28 09:20:33;;;;;;;3.20;2.90;;;;;;;;;;5077705;28;20040;-49
2021/01/28 09:23:08;;;;;;;3.63;3.30;;;;;;;;;;5077470;28;20040;-60
2021/01/28 09:25:35;;;;;;;4.07;3.50;;;;;;;;;;5084015;28;20332;-50
2021/01/28 09:28:07;;;;;;;4.40;3.60;;;;;;;;;;5097881;28;20036;-56
2021/01/28 09:30:38;;;;;;;4.13;3.70;;;;;;;;;;5097613;28;20043;-48
2021/01/28 09:33:24;;;;;;;3.75;3.25;;;;;;;;;;5097557;28;20273;-52
2021/01/28 09:36:20;;;;;;;4.18;3.33;;;;;;;;;;5094684;28;20443;-49
2021/01/28 09:39:13;;;;;;;4.32;3.63;;;;;;;;;;5069994;28;20040;-50
2021/01/28 09:41:47;;;;;;;4.60;3.22;;;;;;;;;;5103914;28;20055;-54
2021/01/28 09:44:34;;;;;;;3.95;3.55;;;;;;;;;;5117911;28;20442;-49
2021/01/28 09:47:05;;;;;;;5.13;4.10;;;;;;;;;;5098953;28;20048;-59
2021/01/28 09:49:32;;;;;;;4.70;3.65;;;;;;;;;;5097320;28;20047;-52
2021/01/28 09:51:59;;;;;;;4.13;3.72;;;;;;;;;;5097269;28;20374;-50
2021/01/28 09:54:29;;;;;;;3.80;3.25;;;;;;;;;;5097293;28;20271;-50
2021/01/28 09:56:55;;;;;;;4.70;3.80;;;;;;;;;;5093345;28;20071;-51
2021/01/28 09:59:22;;;;;;;5.00;3.80;;;;;;;;;;5076549;28;20043;-50
2021/01/28 10:01:50;;;;;;;4.28;3.85;;;;;;;;;;5076737;28;20041;-48
2021/01/28 10:04:17;;;;;;;5.05;3.70;;;;;;;;;;5076762;28;20509;-47
2021/01/28 10:06:43;;;;;;;3.95;3.20;;;;;;;;;;5091375;28;20047;-49
2021/01/28 10:09:10;;;;;;;6.30;3.65;;;;;;;;;;5096674;28;20052;-49
2021/01/28 10:11:37;;;;;;;4.18;3.28;;;;;;;;;;5098505;28;20350;-50
2021/01/28 10:14:04;;;;;;;3.55;3.20;;;;;;;;;;5117243;28;20039;-55
2021/01/28 10:16:32;;;;;;;4.43;3.75;;;;;;;;;;5103323;28;20040;-57
2021/01/28 10:18:59;;;;;;;4.80;3.90;;;;;;;;;;5076729;28;20040;-51
2021/01/28 10:21:26;;;;;;;5.40;4.57;;;;;;;;;;5076740;28;20382;-47
2021/01/28 10:23:53;;;;;;;4.78;3.60;;;;;;;;;;5075467;28;20044;-54
2021/01/28 10:26:19;;;;;;;4.95;4.05;;;;;;;;;;5086948;28;20048;-58
2021/01/28 10:28:46;;;;;;;5.15;3.85;;;;;;;;;;5096408;28;20048;-49
2021/01/28 10:31:13;;;;;;;7.03;4.40;;;;;;;;;;5096216;28;20435;-54
2021/01/28 10:33:40;;;;;;;5.97;4.20;;;;;;;;;;5096294;28;20434;-49
2021/01/28 10:36:07;;;;;;;4.47;3.85;;;;;;;;;;5095909;28;20054;-48
2021/01/28 10:38:35;;;;;;;4.72;3.90;;;;;;;;;;5096168;28;20048;-47
2021/01/28 10:41:02;;;;;;;4.75;3.63;;;;;;;;;;5100602;28;20047;-50
2021/01/28 10:43:29;;;;;;;4.50;3.58;;;;;;;;;;5098761;28;20044;-49
2021/01/28 10:45:56;;;;;;;5.20;3.80;;;;;;;;;;5108915;28;20040;-51
2021/01/28 10:48:23;;;;;;;5.00;4.00;;;;;;;;;;5096228;28;20040;-57
2021/01/28 10:50:50;;;;;;;7.80;4.45;;;;;;;;;;5095992;28;20043;-48
2021/01/28 10:53:17;;;;;;;6.13;4.63;;;;;;;;;;5096042;28;20040;-47
2021/01/28 10:55:45;;;;;;;5.65;4.18;;;;;;;;;;5077883;28;20036;-48
2021/01/28 10:58:12;;;;;;;6.30;4.90;;;;;;;;;;5096036;28;20039;-48
2021/01/28 11:00:39;;;;;;;5.97;4.70;;;;;;;;;;5095932;28;20047;-49
2021/01/28 11:03:06;;;;;;;5.63;4.30;;;;;;;;;;5095870;28;20040;-48
2021/01/28 11:05:34;;;;;;;5.38;3.60;;;;;;;;;;5095542;28;20051;-57
2021/01/28 11:08:01;;;;;;;5.18;3.90;;;;;;;;;;5095768;28;20430;-50
2021/01/28 11:10:31;;;;;;;4.93;4.07;;;;;;;;;;5095888;28;20040;-53
2021/01/28 11:13:01;;;;;;;6.50;4.03;;;;;;;;;;5115163;28;20452;-56
2021/01/28 11:15:29;;;;;;;4.22;3.53;;;;;;;;;;5095463;28;20036;-57
2021/01/28 11:17:56;;;;;;;5.03;3.88;;;;;;;;;;5096081;28;20040;-47
2021/01/28 11:20:24;;;;;;;4.10;3.70;;;;;;;;;;5095651;28;20043;-47
2021/01/28 11:23:11;;;;;;;5.95;4.15;;;;;;;;;;5077877;28;20036;-59
2021/01/28 11:25:38;;;;;;;12.65;8.77;;;;;;;;;;5095298;28;20047;-52
2021/01/28 11:28:05;;;;;;;6.43;5.15;;;;;;;;;;5095595;28;20039;-49
2021/01/28 11:30:33;;;;;;;7.93;4.97;;;;;;;;;;5095578;28;20043;-57
2021/01/28 11:33:00;;;;;;;6.57;4.55;;;;;;;;;;5095250;28;20043;-59
2021/01/28 11:35:30;;;;;;;6.57;4.55;;;;;;;;;;5095013;28;20446;-47
2021/01/28 11:38:00;;;;;;;8.70;5.15;;;;;;;;;;5095444;28;20048;-54
2021/01/28 11:40:47;;;;;;;6.55;4.93;;;;;;;;;;5082905;28;20040;-51
2021/01/28 11:43:14;;;;;;;6.38;5.53;;;;;;;;;;5115674;28;20043;-52
2021/01/28 11:45:57;;;;;;;5.80;4.53;;;;;;;;;;5103050;28;20363;-48
2021/01/28 11:48:28;;;;;;;6.70;4.60;;;;;;;;;;5093434;28;20055;-57
2021/01/28 11:50:54;;;;;;;6.05;4.70;;;;;;;;;;5075050;28;20041;-47
2021/01/28 11:53:21;;;;;;;4.95;4.28;;;;;;;;;;5074955;28;20036;-47
2021/01/28 11:55:48;;;;;;;4.65;4.00;;;;;;;;;;5059031;28;20039;-47
2021/01/28 11:58:18;;;;;;;5.93;4.22;;;;;;;;;;5075053;28;20045;-49
2021/01/28 12:00:46;;;;;;;5.25;4.63;;;;;;;;;;5075155;28;20355;-47
2021/01/28 12:03:12;;;;;;;5.47;4.13;;;;;;;;;;5075009;28;20363;-60
2021/01/28 12:05:39;;;;;;;5.70;4.60;;;;;;;;;;5076845;28;20052;-47
2021/01/28 12:08:13;;;;;;;6.93;4.50;;;;;;;;;;5095187;28;20047;-57
2021/01/28 12:10:40;;;;;;;5.20;3.72;;;;;;;;;;5096286;28;20048;-64
2021/01/28 12:13:06;;;;;;;5.20;4.18;;;;;;;;;;5115337;28;20035;-60
2021/01/28 12:15:33;;;;;;;6.97;4.90;;;;;;;;;;5097378;28;20351;-50
2021/01/28 12:18:00;;;;;;;7.40;5.38;;;;;;;;;;5079136;28;20166;-48
2021/01/28 12:20:32;;;;;;;5.10;4.40;;;;;;;;;;5058034;28;20336;-50
2021/01/28 12:22:59;;;;;;;6.28;5.10;;;;;;;;;;5074780;28;20044;-51
2021/01/28 12:25:26;;;;;;;5.47;4.40;;;;;;;;;;5074966;28;20041;-48
2021/01/28 12:27:53;;;;;;;5.72;4.22;;;;;;;;;;5095257;28;20378;-50
2021/01/28 12:30:22;;;;;;;5.88;4.95;;;;;;;;;;5095001;28;20035;-49
2021/01/28 12:32:49;;;;;;;5.18;4.40;;;;;;;;;;5094932;28;20043;-50
2021/01/28 12:35:16;;;;;;;7.05;5.10;;;;;;;;;;5094701;28;20048;-50
2021/01/28 12:37:43;;;;;;;7.32;5.43;;;;;;;;;;5094771;28;20439;-50
2021/01/28 12:40:12;;;;;;;5.78;4.50;;;;;;;;;;5094711;28;20056;-49
2021/01/28 12:42:38;;;;;;;5.43;4.45;;;;;;;;;;5109634;28;20035;-50
2021/01/28 12:45:06;;;;;;;6.65;4.80;;;;;;;;;;5074338;28;20037;-55
2021/01/28 12:47:33;;;;;;;5.75;4.70;;;;;;;;;;5093172;28;20051;-56
2021/01/28 12:50:00;;;;;;;5.32;4.05;;;;;;;;;;5098480;28;20048;-48
2021/01/28 12:52:26;;;;;;;5.60;4.00;;;;;;;;;;5098379;28;20042;-49
2021/01/28 12:54:53;;;;;;;5.05;4.25;;;;;;;;;;5098264;28;20040;-51
2021/01/28 12:57:20;;;;;;;5.45;4.30;;;;;;;;;;5085013;28;20123;-49
2021/01/28 12:59:47;;;;;;;5.88;3.75;;;;;;;;;;5078014;28;20040;-48
2021/01/28 13:02:14;;;;;;;5.25;3.67;;;;;;;;;;5077952;28;20040;-48
2021/01/28 13:04:41;;;;;;;4.60;3.80;;;;;;;;;;5077814;28;20048;-59
2021/01/28 13:07:07;;;;;;;5.78;4.20;;;;;;;;;;5102956;28;20493;-50
2021/01/28 13:09:34;;;;;;;4.78;3.42;;;;;;;;;;5118500;28;20066;-50
2021/01/28 13:12:02;;;;;;;5.97;3.78;;;;;;;;;;5110724;28;20465;-50
2021/01/28 13:14:29;;;;;;;3.78;3.10;;;;;;;;;;5118357;28;20032;-48
2021/01/28 13:16:55;;;;;;;3.40;3.10;;;;;;;;;;5107438;28;20359;-50
2021/01/28 13:19:22;;;;;;;4.65;3.90;;;;;;;;;;5097810;28;20047;-49
2021/01/28 13:21:49;;;;;;;5.60;4.07;;;;;;;;;;5097916;28;20344;-48
2021/01/28 13:24:16;;;;;;;3.80;3.33;;;;;;;;;;5097683;28;20032;-54
2021/01/28 13:26:43;;;;;;;4.18;3.35;;;;;;;;;;5117897;28;20051;-53
2021/01/28 13:29:09;;;;;;;3.63;3.00;;;;;;;;;;5118057;28;20039;-48
2021/01/28 13:31:36;;;;;;;4.40;3.40;;;;;;;;;;5118081;28;20465;-57
2021/01/28 13:34:06;;;;;;;4.65;3.45;;;;;;;;;;5118042;28;20036;-53
2021/01/28 13:36:33;;;;;;;3.45;3.15;;;;;;;;;;5117520;28;20435;-55
2021/01/28 13:39:00;;;;;;;4.30;3.40;;;;;;;;;;5117743;28;20055;-55
2021/01/28 13:41:27;;;;;;;4.40;3.72;;;;;;;;;;5117526;28;20331;-49
2021/01/28 13:43:54;;;;;;;3.78;3.38;;;;;;;;;;5117907;28;20040;-47
2021/01/28 13:46:22;;;;;;;4.65;3.60;;;;;;;;;;5117272;28;20035;-49
2021/01/28 13:48:49;;;;;;;4.13;3.72;;;;;;;;;;5117667;28;20043;-56
2021/01/28 13:51:16;;;;;;;4.32;3.88;;;;;;;;;;5100673;28;20044;-49
2021/01/28 13:53:43;;;;;;;4.38;3.50;;;;;;;;;;5076990;28;20047;-52
2021/01/28 13:56:12;;;;;;;3.40;3.05;;;;;;;;;;5079668;28;20036;-51
2021/01/28 13:58:39;;;;;;;4.15;3.25;;;;;;;;;;5117384;28;20446;-50
2021/01/28 14:01:06;;;;;;;3.92;3.42;;;;;;;;;;5117492;28;20040;-58
2021/01/28 14:03:34;;;;;;;6.13;4.60;;;;;;;;;;5117377;28;20051;-54
2021/01/28 14:06:10;;;;;;;4.20;3.70;;;;;;;;;;5116983;28;20462;-48
2021/01/28 14:08:37;;;;;;;4.80;3.72;;;;;;;;;;5117339;28;20039;-48
2021/01/28 14:11:04;;;;;;;5.35;4.20;;;;;;;;;;5116838;28;20039;-49
2021/01/28 14:13:31;;;;;;;4.38;3.60;;;;;;;;;;5117100;28;20043;-50
2021/01/28 14:15:58;;;;;;;4.82;4.10;;;;;;;;;;5116614;28;20043;-51
2021/01/28 14:18:29;;;;;;;5.38;3.85;;;;;;;;;;5117273;28;20509;-47
2021/01/28 14:20:56;;;;;;;4.60;3.20;;;;;;;;;;5117151;28;20040;-49
2021/01/28 14:23:23;;;;;;;7.68;5.15;;;;;;;;;;5117046;28;20055;-52
2021/01/28 14:25:50;;;;;;;6.85;4.90;;;;;;;;;;5116892;28;20043;-48
2021/01/28 14:28:17;;;;;;;8.50;5.60;;;;;;;;;;5116760;28;20054;-51
2021/01/28 14:30:44;;;;;;;7.78;5.45;;;;;;;;;;5116968;28;20489;-47
2021/01/28 14:33:11;;;;;;;17.00;13.48;;;;;;;;;;5116697;28;20047;-51
2021/01/28 14:35:43;;;;;;;19.08;15.50;;;;;;;;;;5116616;28;20047;-51
2021/01/28 14:38:09;;;;;;;21.33;14.85;;;;;;;;;;5116652;28;20476;-51
2021/01/28 14:40:36;;;;;;;7.43;6.22;;;;;;;;;;5116582;28;20054;-56
2021/01/28 14:43:03;;;;;;;4.97;4.13;;;;;;;;;;5116730;28;20042;-52
2021/01/28 14:45:30;;;;;;;4.45;3.85;;;;;;;;;;5097725;28;20359;-55
2021/01/28 14:47:57;;;;;;;5.72;4.30;;;;;;;;;;5093030;28;20036;-50
2021/01/28 14:50:24;;;;;;;5.55;4.35;;;;;;;;;;5116479;28;20043;-49
2021/01/28 14:52:51;;;;;;;4.57;3.92;;;;;;;;;;5103440;28;20467;-48
2021/01/28 14:55:18;;;;;;;5.57;4.50;;;;;;;;;;5075487;28;20332;-51
2021/01/28 14:57:46;;;;;;;5.65;4.38;;;;;;;;;;5089951;28;20332;-50
2021/01/28 15:00:13;;;;;;;6.32;4.82;;;;;;;;;;5116410;28;20040;-56
2021/01/28 15:02:39;;;;;;;7.00;4.15;;;;;;;;;;5116274;28;20435;-48
2021/01/28 15:05:07;;;;;;;6.05;4.43;;;;;;;;;;5103494;28;20051;-55
2021/01/28 15:07:33;;;;;;;7.03;4.88;;;;;;;;;;5095644;28;20466;-49
2021/01/28 15:10:00;;;;;;;6.72;5.00;;;;;;;;;;5084484;28;20044;-49
2021/01/28 15:12:27;;;;;;;6.78;5.65;;;;;;;;;;5108755;28;20043;-50
2021/01/28 15:14:54;;;;;;;12.80;8.40;;;;;;;;;;5078588;28;20040;-49
2021/01/28 15:17:20;;;;;;;10.40;6.97;;;;;;;;;;5081413;28;20071;-46
2021/01/28 15:19:47;;;;;;;5.65;4.65;;;;;;;;;;5083075;28;20036;-55
2021/01/28 15:22:15;;;;;;;6.35;4.70;;;;;;;;;;5095467;28;20075;-47